sensor_id;sensor_type;location;lat;lon;timestamp;temperature;humidity
32428;DHT22;18882;50.952;4.366;2022-09-01T00:01:00;19.00;99.90
32428;DHT22;18882;50.952;4.366;2022-09-01T00:03:28;18.90;99.90
32428;DHT22;18882;50.952;4.366;2022-09-01T00:05:54;18.90;99.90
32428;DHT22;18882;50.952;4.366;2022-09-01T00:08:22;18.60;99.90
32428;DHT22;18882;50.952;4.366;2022-09-01T00:10:48;18.40;99.90
32428;DHT22;18882;50.952;4.366;2022-09-01T00:13:14;18.30;99.90
32428;DHT22;18882;50.952;4.366;2022-09-01T00:15:40;18.20;99.90
32428;DHT22;18882;50.952;4.366;2022-09-01T00:18:06;18.20;99.90
32428;DHT22;18882;50.952;4.366;2022-09-01T00:20:33;18.10;99.90
32428;DHT22;18882;50.952;4.366;2022-09-01T00:22:59;18.10;99.90
32428;DHT22;18882;50.952;4.366;2022-09-01T00:25:26;17.90;99.90
32428;DHT22;18882;50.952;4.366;2022-09-01T00:27:53;17.80;99.90
32428;DHT22;18882;50.952;4.366;2022-09-01T00:30:20;17.80;99.90
32428;DHT22;18882;50.952;4.366;2022-09-01T00:32:46;17.80;99.90
32428;DHT22;18882;50.952;4.366;2022-09-01T00:35:17;17.80;99.90
32428;DHT22;18882;50.952;4.366;2022-09-01T00:37:44;17.90;99.90
32428;DHT22;18882;50.952;4.366;2022-09-01T00:40:11;17.90;99.90
32428;DHT22;18882;50.952;4.366;2022-09-01T00:42:39;17.90;99.90
32428;DHT22;18882;50.952;4.366;2022-09-01T00:45:07;17.70;99.90
32428;DHT22;18882;50.952;4.366;2022-09-01T00:47:33;17.70;99.90
32428;DHT22;18882;50.952;4.366;2022-09-01T00:50:02;17.80;99.90
32428;DHT22;18882;50.952;4.366;2022-09-01T00:52:34;17.80;99.90
32428;DHT22;18882;50.952;4.366;2022-09-01T00:55:07;17.80;99.90
32428;DHT22;18882;50.952;4.366;2022-09-01T00:57:34;17.70;99.90
32428;DHT22;18882;50.952;4.366;2022-09-01T01:00:13;17.70;99.90
32428;DHT22;18882;50.952;4.366;2022-09-01T01:02:40;17.60;99.90
32428;DHT22;18882;50.952;4.366;2022-09-01T01:05:07;17.60;99.90
32428;DHT22;18882;50.952;4.366;2022-09-01T01:07:34;17.50;99.90
32428;DHT22;18882;50.952;4.366;2022-09-01T01:10:05;17.50;99.90
32428;DHT22;18882;50.952;4.366;2022-09-01T01:12:32;17.50;99.90
32428;DHT22;18882;50.952;4.366;2022-09-01T01:14:58;17.50;99.90
32428;DHT22;18882;50.952;4.366;2022-09-01T01:17:24;17.40;99.90
32428;DHT22;18882;50.952;4.366;2022-09-01T01:19:53;17.60;99.90
32428;DHT22;18882;50.952;4.366;2022-09-01T01:25:21;17.70;99.90
32428;DHT22;18882;50.952;4.366;2022-09-01T01:27:48;17.80;99.90
32428;DHT22;18882;50.952;4.366;2022-09-01T01:30:15;17.80;99.90
32428;DHT22;18882;50.952;4.366;2022-09-01T01:32:43;17.90;99.90
32428;DHT22;18882;50.952;4.366;2022-09-01T01:35:11;18.00;99.90
32428;DHT22;18882;50.952;4.366;2022-09-01T01:37:45;18.10;99.90
32428;DHT22;18882;50.952;4.366;2022-09-01T01:40:16;18.10;99.90
32428;DHT22;18882;50.952;4.366;2022-09-01T01:42:48;17.90;99.90
32428;DHT22;18882;50.952;4.366;2022-09-01T01:45:16;17.60;99.90
32428;DHT22;18882;50.952;4.366;2022-09-01T01:47:47;17.60;99.90
32428;DHT22;18882;50.952;4.366;2022-09-01T01:50:19;17.70;99.90
32428;DHT22;18882;50.952;4.366;2022-09-01T01:52:45;17.80;99.90
32428;DHT22;18882;50.952;4.366;2022-09-01T01:55:11;17.80;99.90
32428;DHT22;18882;50.952;4.366;2022-09-01T01:57:40;17.70;99.90
32428;DHT22;18882;50.952;4.366;2022-09-01T02:00:13;17.60;99.90
32428;DHT22;18882;50.952;4.366;2022-09-01T02:02:47;17.50;99.90
32428;DHT22;18882;50.952;4.366;2022-09-01T02:05:21;17.40;99.90
32428;DHT22;18882;50.952;4.366;2022-09-01T02:07:53;17.20;99.90
32428;DHT22;18882;50.952;4.366;2022-09-01T02:10:38;17.10;99.90
32428;DHT22;18882;50.952;4.366;2022-09-01T02:13:08;17.10;99.90
32428;DHT22;18882;50.952;4.366;2022-09-01T02:15:39;17.10;99.90
32428;DHT22;18882;50.952;4.366;2022-09-01T02:18:13;17.10;99.90
32428;DHT22;18882;50.952;4.366;2022-09-01T02:20:41;17.10;99.90
32428;DHT22;18882;50.952;4.366;2022-09-01T02:23:07;17.00;99.90
32428;DHT22;18882;50.952;4.366;2022-09-01T02:25:39;17.00;99.90
32428;DHT22;18882;50.952;4.366;2022-09-01T02:28:07;16.90;99.90
32428;DHT22;18882;50.952;4.366;2022-09-01T02:30:37;16.90;99.90
32428;DHT22;18882;50.952;4.366;2022-09-01T02:33:06;17.00;99.90
32428;DHT22;18882;50.952;4.366;2022-09-01T02:35:34;16.90;99.90
32428;DHT22;18882;50.952;4.366;2022-09-01T02:38:04;17.00;99.90
32428;DHT22;18882;50.952;4.366;2022-09-01T02:40:31;16.90;99.90
32428;DHT22;18882;50.952;4.366;2022-09-01T02:42:58;17.00;99.90
32428;DHT22;18882;50.952;4.366;2022-09-01T02:45:25;17.00;99.90
32428;DHT22;18882;50.952;4.366;2022-09-01T02:47:51;17.00;99.90
32428;DHT22;18882;50.952;4.366;2022-09-01T02:50:18;16.90;99.90
32428;DHT22;18882;50.952;4.366;2022-09-01T02:52:45;16.80;99.90
32428;DHT22;18882;50.952;4.366;2022-09-01T02:55:14;16.70;99.90
32428;DHT22;18882;50.952;4.366;2022-09-01T02:57:50;16.70;99.90
32428;DHT22;18882;50.952;4.366;2022-09-01T03:00:20;16.70;99.90
32428;DHT22;18882;50.952;4.366;2022-09-01T03:02:54;16.70;99.90
32428;DHT22;18882;50.952;4.366;2022-09-01T03:05:22;16.80;99.90
32428;DHT22;18882;50.952;4.366;2022-09-01T03:07:52;16.80;99.90
32428;DHT22;18882;50.952;4.366;2022-09-01T03:10:21;16.80;99.90
32428;DHT22;18882;50.952;4.366;2022-09-01T03:12:48;16.80;99.90
32428;DHT22;18882;50.952;4.366;2022-09-01T03:15:14;16.80;99.90
32428;DHT22;18882;50.952;4.366;2022-09-01T03:17:40;16.70;99.90
32428;DHT22;18882;50.952;4.366;2022-09-01T03:20:06;16.70;99.90
32428;DHT22;18882;50.952;4.366;2022-09-01T03:22:32;16.90;99.90
32428;DHT22;18882;50.952;4.366;2022-09-01T03:24:58;16.90;99.90
32428;DHT22;18882;50.952;4.366;2022-09-01T03:27:24;16.80;99.90
32428;DHT22;18882;50.952;4.366;2022-09-01T03:29:50;16.70;99.90
32428;DHT22;18882;50.952;4.366;2022-09-01T03:32:15;16.70;99.90
32428;DHT22;18882;50.952;4.366;2022-09-01T03:34:41;16.80;99.90
32428;DHT22;18882;50.952;4.366;2022-09-01T03:37:08;17.10;99.90
32428;DHT22;18882;50.952;4.366;2022-09-01T03:39:34;17.30;99.90
32428;DHT22;18882;50.952;4.366;2022-09-01T03:42:00;17.40;99.90
32428;DHT22;18882;50.952;4.366;2022-09-01T03:44:26;17.40;99.90
32428;DHT22;18882;50.952;4.366;2022-09-01T03:46:51;17.40;99.90
32428;DHT22;18882;50.952;4.366;2022-09-01T03:49:18;17.50;99.90
32428;DHT22;18882;50.952;4.366;2022-09-01T03:51:49;17.60;99.90
32428;DHT22;18882;50.952;4.366;2022-09-01T03:54:18;17.60;99.90
32428;DHT22;18882;50.952;4.366;2022-09-01T03:56:44;17.70;99.90
32428;DHT22;18882;50.952;4.366;2022-09-01T03:59:10;17.60;99.90
32428;DHT22;18882;50.952;4.366;2022-09-01T04:01:41;17.50;99.90
32428;DHT22;18882;50.952;4.366;2022-09-01T04:04:09;17.00;99.90
32428;DHT22;18882;50.952;4.366;2022-09-01T04:06:39;16.70;99.90
32428;DHT22;18882;50.952;4.366;2022-09-01T04:09:06;16.60;99.90
32428;DHT22;18882;50.952;4.366;2022-09-01T04:11:32;16.70;99.90
32428;DHT22;18882;50.952;4.366;2022-09-01T04:13:59;16.70;99.90
32428;DHT22;18882;50.952;4.366;2022-09-01T04:16:26;16.70;99.90
32428;DHT22;18882;50.952;4.366;2022-09-01T04:19:13;16.50;99.90
32428;DHT22;18882;50.952;4.366;2022-09-01T04:21:54;16.60;99.90
32428;DHT22;18882;50.952;4.366;2022-09-01T04:24:21;16.40;99.90
32428;DHT22;18882;50.952;4.366;2022-09-01T04:26:50;16.30;99.90
32428;DHT22;18882;50.952;4.366;2022-09-01T04:29:17;16.20;99.90
32428;DHT22;18882;50.952;4.366;2022-09-01T04:31:55;16.10;99.90
32428;DHT22;18882;50.952;4.366;2022-09-01T04:34:22;16.10;99.90
32428;DHT22;18882;50.952;4.366;2022-09-01T04:36:49;16.10;99.90
32428;DHT22;18882;50.952;4.366;2022-09-01T04:39:19;16.30;99.90
32428;DHT22;18882;50.952;4.366;2022-09-01T04:41:45;16.50;99.90
32428;DHT22;18882;50.952;4.366;2022-09-01T04:44:12;16.40;99.90
32428;DHT22;18882;50.952;4.366;2022-09-01T04:46:41;16.30;99.90
32428;DHT22;18882;50.952;4.366;2022-09-01T04:49:13;16.20;99.90
32428;DHT22;18882;50.952;4.366;2022-09-01T04:51:46;16.40;99.90
32428;DHT22;18882;50.952;4.366;2022-09-01T04:54:13;16.50;99.90
32428;DHT22;18882;50.952;4.366;2022-09-01T04:56:40;16.50;99.90
32428;DHT22;18882;50.952;4.366;2022-09-01T04:59:08;16.50;99.90
32428;DHT22;18882;50.952;4.366;2022-09-01T05:01:36;16.40;99.90
32428;DHT22;18882;50.952;4.366;2022-09-01T05:04:34;16.50;99.90
32428;DHT22;18882;50.952;4.366;2022-09-01T05:07:03;16.50;99.90
32428;DHT22;18882;50.952;4.366;2022-09-01T05:09:35;16.50;99.90
32428;DHT22;18882;50.952;4.366;2022-09-01T05:12:02;16.60;99.90
32428;DHT22;18882;50.952;4.366;2022-09-01T05:14:44;16.60;99.90
32428;DHT22;18882;50.952;4.366;2022-09-01T05:17:13;16.50;99.90
32428;DHT22;18882;50.952;4.366;2022-09-01T05:19:41;16.50;99.90
32428;DHT22;18882;50.952;4.366;2022-09-01T05:22:08;16.50;99.90
32428;DHT22;18882;50.952;4.366;2022-09-01T05:24:35;16.50;99.90
32428;DHT22;18882;50.952;4.366;2022-09-01T05:27:03;16.40;99.90
32428;DHT22;18882;50.952;4.366;2022-09-01T05:29:28;16.40;99.90
32428;DHT22;18882;50.952;4.366;2022-09-01T05:31:54;16.20;99.90
32428;DHT22;18882;50.952;4.366;2022-09-01T05:34:21;16.10;99.90
32428;DHT22;18882;50.952;4.366;2022-09-01T05:36:54;16.10;99.90
32428;DHT22;18882;50.952;4.366;2022-09-01T05:39:21;16.10;99.90
32428;DHT22;18882;50.952;4.366;2022-09-01T05:41:47;16.00;99.90
32428;DHT22;18882;50.952;4.366;2022-09-01T05:44:14;15.90;99.90
32428;DHT22;18882;50.952;4.366;2022-09-01T05:46:41;15.90;99.90
32428;DHT22;18882;50.952;4.366;2022-09-01T05:49:12;16.00;99.90
32428;DHT22;18882;50.952;4.366;2022-09-01T05:51:42;16.00;99.90
32428;DHT22;18882;50.952;4.366;2022-09-01T05:54:09;16.00;99.90
32428;DHT22;18882;50.952;4.366;2022-09-01T05:56:37;16.00;99.90
32428;DHT22;18882;50.952;4.366;2022-09-01T05:59:05;16.10;99.90
32428;DHT22;18882;50.952;4.366;2022-09-01T06:01:31;16.10;99.90
32428;DHT22;18882;50.952;4.366;2022-09-01T06:04:00;15.70;99.90
32428;DHT22;18882;50.952;4.366;2022-09-01T06:06:32;15.50;99.90
32428;DHT22;18882;50.952;4.366;2022-09-01T06:09:07;15.60;99.90
32428;DHT22;18882;50.952;4.366;2022-09-01T06:11:35;15.50;99.90
32428;DHT22;18882;50.952;4.366;2022-09-01T06:14:01;15.50;99.90
32428;DHT22;18882;50.952;4.366;2022-09-01T06:16:28;15.50;99.90
32428;DHT22;18882;50.952;4.366;2022-09-01T06:18:55;15.50;99.90
32428;DHT22;18882;50.952;4.366;2022-09-01T06:21:22;15.60;99.90
32428;DHT22;18882;50.952;4.366;2022-09-01T06:23:50;15.70;99.90
32428;DHT22;18882;50.952;4.366;2022-09-01T06:26:20;15.90;99.90
32428;DHT22;18882;50.952;4.366;2022-09-01T06:28:48;16.20;99.90
32428;DHT22;18882;50.952;4.366;2022-09-01T06:31:19;16.30;99.90
32428;DHT22;18882;50.952;4.366;2022-09-01T06:33:49;16.40;99.90
32428;DHT22;18882;50.952;4.366;2022-09-01T06:36:16;16.60;99.90
32428;DHT22;18882;50.952;4.366;2022-09-01T06:38:45;16.40;99.90
32428;DHT22;18882;50.952;4.366;2022-09-01T06:41:11;16.20;99.90
32428;DHT22;18882;50.952;4.366;2022-09-01T06:43:41;16.10;99.90
32428;DHT22;18882;50.952;4.366;2022-09-01T06:46:08;16.10;99.90
32428;DHT22;18882;50.952;4.366;2022-09-01T06:48:36;16.30;99.90
32428;DHT22;18882;50.952;4.366;2022-09-01T06:51:06;16.60;99.90
32428;DHT22;18882;50.952;4.366;2022-09-01T06:53:33;16.80;99.90
32428;DHT22;18882;50.952;4.366;2022-09-01T06:55:59;16.80;99.90
32428;DHT22;18882;50.952;4.366;2022-09-01T06:58:25;16.80;99.90
32428;DHT22;18882;50.952;4.366;2022-09-01T07:00:51;16.70;99.90
32428;DHT22;18882;50.952;4.366;2022-09-01T07:03:16;16.90;99.90
32428;DHT22;18882;50.952;4.366;2022-09-01T07:05:45;16.80;99.90
32428;DHT22;18882;50.952;4.366;2022-09-01T07:08:13;16.90;99.90
32428;DHT22;18882;50.952;4.366;2022-09-01T07:10:51;17.00;99.90
32428;DHT22;18882;50.952;4.366;2022-09-01T07:13:20;17.00;99.90
32428;DHT22;18882;50.952;4.366;2022-09-01T07:15:50;17.10;99.90
32428;DHT22;18882;50.952;4.366;2022-09-01T07:18:17;17.00;99.90
32428;DHT22;18882;50.952;4.366;2022-09-01T07:20:46;17.20;99.90
32428;DHT22;18882;50.952;4.366;2022-09-01T07:23:14;17.50;99.90
32428;DHT22;18882;50.952;4.366;2022-09-01T07:25:43;17.70;99.90
32428;DHT22;18882;50.952;4.366;2022-09-01T07:28:10;17.70;99.90
32428;DHT22;18882;50.952;4.366;2022-09-01T07:30:44;17.80;99.90
32428;DHT22;18882;50.952;4.366;2022-09-01T07:33:13;17.80;99.90
32428;DHT22;18882;50.952;4.366;2022-09-01T07:35:41;18.00;99.90
32428;DHT22;18882;50.952;4.366;2022-09-01T07:38:07;18.20;99.90
32428;DHT22;18882;50.952;4.366;2022-09-01T07:40:39;18.30;99.90
32428;DHT22;18882;50.952;4.366;2022-09-01T07:43:08;18.20;99.90
32428;DHT22;18882;50.952;4.366;2022-09-01T07:45:43;18.10;99.90
32428;DHT22;18882;50.952;4.366;2022-09-01T07:48:09;18.40;99.90
32428;DHT22;18882;50.952;4.366;2022-09-01T07:50:39;18.50;99.90
32428;DHT22;18882;50.952;4.366;2022-09-01T07:53:05;18.70;99.90
32428;DHT22;18882;50.952;4.366;2022-09-01T07:55:34;19.00;99.90
32428;DHT22;18882;50.952;4.366;2022-09-01T07:57:59;19.20;99.90
32428;DHT22;18882;50.952;4.366;2022-09-01T08:00:25;19.20;99.90
32428;DHT22;18882;50.952;4.366;2022-09-01T08:02:52;19.20;99.90
32428;DHT22;18882;50.952;4.366;2022-09-01T08:05:18;18.90;99.90
32428;DHT22;18882;50.952;4.366;2022-09-01T08:07:50;19.10;99.90
32428;DHT22;18882;50.952;4.366;2022-09-01T08:10:16;19.10;99.90
32428;DHT22;18882;50.952;4.366;2022-09-01T08:12:42;19.20;99.90
32428;DHT22;18882;50.952;4.366;2022-09-01T08:15:09;19.10;99.90
32428;DHT22;18882;50.952;4.366;2022-09-01T08:17:37;19.40;99.90
32428;DHT22;18882;50.952;4.366;2022-09-01T08:20:04;19.50;99.90
32428;DHT22;18882;50.952;4.366;2022-09-01T08:22:32;19.90;99.90
32428;DHT22;18882;50.952;4.366;2022-09-01T08:24:58;20.20;99.90
32428;DHT22;18882;50.952;4.366;2022-09-01T08:27:24;20.00;99.90
32428;DHT22;18882;50.952;4.366;2022-09-01T08:29:49;20.10;99.90
32428;DHT22;18882;50.952;4.366;2022-09-01T08:32:15;20.10;99.90
32428;DHT22;18882;50.952;4.366;2022-09-01T08:34:41;20.00;99.90
32428;DHT22;18882;50.952;4.366;2022-09-01T08:37:08;20.20;99.90
32428;DHT22;18882;50.952;4.366;2022-09-01T08:39:35;20.30;99.90
32428;DHT22;18882;50.952;4.366;2022-09-01T08:42:11;20.50;99.90
32428;DHT22;18882;50.952;4.366;2022-09-01T08:45:03;20.50;99.90
32428;DHT22;18882;50.952;4.366;2022-09-01T08:47:32;20.50;99.90
32428;DHT22;18882;50.952;4.366;2022-09-01T08:49:58;20.70;99.90
32428;DHT22;18882;50.952;4.366;2022-09-01T08:57:39;21.10;99.90
32428;DHT22;18882;50.952;4.366;2022-09-01T09:00:09;21.10;99.90
32428;DHT22;18882;50.952;4.366;2022-09-01T09:05:51;21.00;99.90
32428;DHT22;18882;50.952;4.366;2022-09-01T09:16:56;22.10;99.90
32428;DHT22;18882;50.952;4.366;2022-09-01T09:19:42;22.30;99.90
32428;DHT22;18882;50.952;4.366;2022-09-01T09:22:17;22.40;99.90
32428;DHT22;18882;50.952;4.366;2022-09-01T09:24:58;22.40;99.90
32428;DHT22;18882;50.952;4.366;2022-09-01T09:27:34;22.30;99.90
32428;DHT22;18882;50.952;4.366;2022-09-01T09:30:10;22.20;99.90
32428;DHT22;18882;50.952;4.366;2022-09-01T09:32:54;22.30;99.90
32428;DHT22;18882;50.952;4.366;2022-09-01T09:37:46;22.80;99.90
32428;DHT22;18882;50.952;4.366;2022-09-01T09:40:21;23.00;99.90
32428;DHT22;18882;50.952;4.366;2022-09-01T09:47:50;22.70;99.90
32428;DHT22;18882;50.952;4.366;2022-09-01T09:50:17;22.80;99.90
32428;DHT22;18882;50.952;4.366;2022-09-01T09:52:45;22.90;99.90
32428;DHT22;18882;50.952;4.366;2022-09-01T09:55:28;23.20;99.90
32428;DHT22;18882;50.952;4.366;2022-09-01T09:57:59;23.70;99.90
32428;DHT22;18882;50.952;4.366;2022-09-01T10:00:32;23.50;99.90
32428;DHT22;18882;50.952;4.366;2022-09-01T10:03:03;23.30;99.90
32428;DHT22;18882;50.952;4.366;2022-09-01T10:05:42;23.40;99.90
32428;DHT22;18882;50.952;4.366;2022-09-01T10:08:49;23.60;99.90
32428;DHT22;18882;50.952;4.366;2022-09-01T10:11:48;23.90;99.90
32428;DHT22;18882;50.952;4.366;2022-09-01T10:14:22;23.90;99.90
32428;DHT22;18882;50.952;4.366;2022-09-01T10:16:55;23.90;99.90
32428;DHT22;18882;50.952;4.366;2022-09-01T10:19:22;24.10;99.90
32428;DHT22;18882;50.952;4.366;2022-09-01T10:21:49;24.40;99.90
32428;DHT22;18882;50.952;4.366;2022-09-01T10:27:00;25.00;99.90
32428;DHT22;18882;50.952;4.366;2022-09-01T10:29:47;25.00;99.90
32428;DHT22;18882;50.952;4.366;2022-09-01T10:32:22;24.90;99.90
32428;DHT22;18882;50.952;4.366;2022-09-01T10:34:50;24.80;99.90
32428;DHT22;18882;50.952;4.366;2022-09-01T10:37:17;25.10;99.90
32428;DHT22;18882;50.952;4.366;2022-09-01T10:40:33;25.60;99.90
32428;DHT22;18882;50.952;4.366;2022-09-01T10:42:57;25.60;99.90
32428;DHT22;18882;50.952;4.366;2022-09-01T10:45:35;26.70;99.90
32428;DHT22;18882;50.952;4.366;2022-09-01T10:53:51;27.10;99.70
32428;DHT22;18882;50.952;4.366;2022-09-01T10:56:21;27.00;99.30
32428;DHT22;18882;50.952;4.366;2022-09-01T11:04:06;26.70;98.60
32428;DHT22;18882;50.952;4.366;2022-09-01T11:06:43;26.00;99.10
32428;DHT22;18882;50.952;4.366;2022-09-01T11:09:22;25.30;99.50
32428;DHT22;18882;50.952;4.366;2022-09-01T11:12:14;24.80;99.90
32428;DHT22;18882;50.952;4.366;2022-09-01T11:15:02;25.00;99.90
32428;DHT22;18882;50.952;4.366;2022-09-01T11:20:27;25.00;99.90
32428;DHT22;18882;50.952;4.366;2022-09-01T11:23:28;25.20;99.90
32428;DHT22;18882;50.952;4.366;2022-09-01T11:25:59;25.60;99.90
32428;DHT22;18882;50.952;4.366;2022-09-01T11:30:56;25.80;99.40
32428;DHT22;18882;50.952;4.366;2022-09-01T11:36:32;25.80;98.90
32428;DHT22;18882;50.952;4.366;2022-09-01T11:47:14;25.30;99.90
32428;DHT22;18882;50.952;4.366;2022-09-01T11:52:25;26.00;99.40
32428;DHT22;18882;50.952;4.366;2022-09-01T11:54:51;26.30;98.80
32428;DHT22;18882;50.952;4.366;2022-09-01T11:57:30;26.20;98.80
32428;DHT22;18882;50.952;4.366;2022-09-01T12:00:00;26.00;99.00
32428;DHT22;18882;50.952;4.366;2022-09-01T12:02:29;26.10;99.10
32428;DHT22;18882;50.952;4.366;2022-09-01T12:04:59;26.40;98.40
32428;DHT22;18882;50.952;4.366;2022-09-01T12:07:44;26.40;98.10
32428;DHT22;18882;50.952;4.366;2022-09-01T12:10:19;26.50;98.50
32428;DHT22;18882;50.952;4.366;2022-09-01T12:12:45;26.70;98.90
32428;DHT22;18882;50.952;4.366;2022-09-01T12:17:40;26.10;98.40
32428;DHT22;18882;50.952;4.366;2022-09-01T12:22:50;25.90;99.20
32428;DHT22;18882;50.952;4.366;2022-09-01T12:25:22;25.90;98.50
32428;DHT22;18882;50.952;4.366;2022-09-01T12:27:49;25.50;98.70
32428;DHT22;18882;50.952;4.366;2022-09-01T12:30:16;25.10;99.20
32428;DHT22;18882;50.952;4.366;2022-09-01T12:32:43;24.90;99.40
32428;DHT22;18882;50.952;4.366;2022-09-01T12:35:35;24.80;99.10
32428;DHT22;18882;50.952;4.366;2022-09-01T12:40:46;24.90;99.10
32428;DHT22;18882;50.952;4.366;2022-09-01T12:45:59;25.10;99.30
32428;DHT22;18882;50.952;4.366;2022-09-01T12:48:31;25.30;99.00
32428;DHT22;18882;50.952;4.366;2022-09-01T12:51:03;25.20;98.90
32428;DHT22;18882;50.952;4.366;2022-09-01T12:53:31;25.20;98.70
32428;DHT22;18882;50.952;4.366;2022-09-01T12:56:16;25.00;98.70
32428;DHT22;18882;50.952;4.366;2022-09-01T12:58:46;24.90;98.90
32428;DHT22;18882;50.952;4.366;2022-09-01T13:01:24;25.00;98.50
32428;DHT22;18882;50.952;4.366;2022-09-01T13:04:27;24.90;98.70
32428;DHT22;18882;50.952;4.366;2022-09-01T13:06:59;25.40;98.80
32428;DHT22;18882;50.952;4.366;2022-09-01T13:09:25;25.60;98.90
32428;DHT22;18882;50.952;4.366;2022-09-01T13:11:51;25.50;98.70
32428;DHT22;18882;50.952;4.366;2022-09-01T13:14:17;25.60;99.40
32428;DHT22;18882;50.952;4.366;2022-09-01T13:16:43;25.90;98.40
32428;DHT22;18882;50.952;4.366;2022-09-01T13:19:09;25.80;98.50
32428;DHT22;18882;50.952;4.366;2022-09-01T13:21:36;26.00;98.30
32428;DHT22;18882;50.952;4.366;2022-09-01T13:24:05;25.90;97.50
32428;DHT22;18882;50.952;4.366;2022-09-01T13:26:31;25.70;98.10
32428;DHT22;18882;50.952;4.366;2022-09-01T13:28:58;25.60;98.60
32428;DHT22;18882;50.952;4.366;2022-09-01T13:31:24;25.40;98.20
32428;DHT22;18882;50.952;4.366;2022-09-01T13:33:50;25.20;98.50
32428;DHT22;18882;50.952;4.366;2022-09-01T13:36:16;25.00;98.10
32428;DHT22;18882;50.952;4.366;2022-09-01T13:38:41;25.10;98.30
32428;DHT22;18882;50.952;4.366;2022-09-01T13:41:07;25.20;97.70
32428;DHT22;18882;50.952;4.366;2022-09-01T13:43:35;25.40;97.70
32428;DHT22;18882;50.952;4.366;2022-09-01T13:46:01;25.50;97.40
32428;DHT22;18882;50.952;4.366;2022-09-01T13:48:27;25.60;97.40
32428;DHT22;18882;50.952;4.366;2022-09-01T13:50:54;25.70;97.70
32428;DHT22;18882;50.952;4.366;2022-09-01T13:53:20;25.70;97.70
32428;DHT22;18882;50.952;4.366;2022-09-01T13:55:46;25.70;97.60
32428;DHT22;18882;50.952;4.366;2022-09-01T13:58:12;25.40;96.90
32428;DHT22;18882;50.952;4.366;2022-09-01T14:00:42;25.30;97.50
32428;DHT22;18882;50.952;4.366;2022-09-01T14:03:18;25.50;98.10
32428;DHT22;18882;50.952;4.366;2022-09-01T14:05:46;25.80;97.70
32428;DHT22;18882;50.952;4.366;2022-09-01T14:08:15;25.50;96.90
32428;DHT22;18882;50.952;4.366;2022-09-01T14:10:44;25.20;97.10
32428;DHT22;18882;50.952;4.366;2022-09-01T14:13:10;25.10;97.00
32428;DHT22;18882;50.952;4.366;2022-09-01T14:15:36;25.30;97.40
32428;DHT22;18882;50.952;4.366;2022-09-01T14:18:03;25.30;97.40
32428;DHT22;18882;50.952;4.366;2022-09-01T14:20:34;25.20;97.00
32428;DHT22;18882;50.952;4.366;2022-09-01T14:23:02;25.00;97.30
32428;DHT22;18882;50.952;4.366;2022-09-01T14:25:29;25.10;98.00
32428;DHT22;18882;50.952;4.366;2022-09-01T14:27:56;25.20;97.90
32428;DHT22;18882;50.952;4.366;2022-09-01T14:30:23;25.10;97.90
32428;DHT22;18882;50.952;4.366;2022-09-01T14:32:49;25.10;97.70
32428;DHT22;18882;50.952;4.366;2022-09-01T14:35:17;24.90;97.30
32428;DHT22;18882;50.952;4.366;2022-09-01T14:37:45;25.00;97.60
32428;DHT22;18882;50.952;4.366;2022-09-01T14:40:13;25.10;97.00
32428;DHT22;18882;50.952;4.366;2022-09-01T14:42:41;25.10;96.70
32428;DHT22;18882;50.952;4.366;2022-09-01T14:45:09;25.10;96.40
32428;DHT22;18882;50.952;4.366;2022-09-01T14:47:36;25.00;96.20
32428;DHT22;18882;50.952;4.366;2022-09-01T14:50:02;25.00;96.40
32428;DHT22;18882;50.952;4.366;2022-09-01T14:52:29;25.00;96.00
32428;DHT22;18882;50.952;4.366;2022-09-01T14:54:55;25.00;96.30
32428;DHT22;18882;50.952;4.366;2022-09-01T14:57:20;25.10;95.70
32428;DHT22;18882;50.952;4.366;2022-09-01T14:59:46;25.10;95.10
32428;DHT22;18882;50.952;4.366;2022-09-01T15:02:12;25.00;95.50
32428;DHT22;18882;50.952;4.366;2022-09-01T15:04:38;25.20;96.50
32428;DHT22;18882;50.952;4.366;2022-09-01T15:07:04;25.50;96.20
32428;DHT22;18882;50.952;4.366;2022-09-01T15:09:31;25.70;95.80
32428;DHT22;18882;50.952;4.366;2022-09-01T15:11:57;25.50;95.10
32428;DHT22;18882;50.952;4.366;2022-09-01T15:14:23;25.40;95.60
32428;DHT22;18882;50.952;4.366;2022-09-01T15:16:49;25.30;94.90
32428;DHT22;18882;50.952;4.366;2022-09-01T15:19:15;25.50;95.50
32428;DHT22;18882;50.952;4.366;2022-09-01T15:21:42;25.60;95.20
32428;DHT22;18882;50.952;4.366;2022-09-01T15:24:09;25.40;94.20
32428;DHT22;18882;50.952;4.366;2022-09-01T15:26:36;25.30;94.80
32428;DHT22;18882;50.952;4.366;2022-09-01T15:29:03;25.30;94.80
32428;DHT22;18882;50.952;4.366;2022-09-01T15:31:29;25.30;94.70
32428;DHT22;18882;50.952;4.366;2022-09-01T15:33:59;25.20;94.40
32428;DHT22;18882;50.952;4.366;2022-09-01T15:36:26;25.40;93.80
32428;DHT22;18882;50.952;4.366;2022-09-01T15:38:53;25.50;93.30
32428;DHT22;18882;50.952;4.366;2022-09-01T15:41:24;25.70;93.90
32428;DHT22;18882;50.952;4.366;2022-09-01T15:43:51;25.80;93.10
32428;DHT22;18882;50.952;4.366;2022-09-01T15:46:17;25.50;93.10
32428;DHT22;18882;50.952;4.366;2022-09-01T15:48:43;25.40;93.60
32428;DHT22;18882;50.952;4.366;2022-09-01T15:51:28;25.40;93.70
32428;DHT22;18882;50.952;4.366;2022-09-01T15:54:01;25.20;93.30
32428;DHT22;18882;50.952;4.366;2022-09-01T15:56:27;25.10;93.40
32428;DHT22;18882;50.952;4.366;2022-09-01T15:58:54;25.20;93.80
32428;DHT22;18882;50.952;4.366;2022-09-01T16:01:20;25.00;93.00
32428;DHT22;18882;50.952;4.366;2022-09-01T16:03:46;25.00;93.30
32428;DHT22;18882;50.952;4.366;2022-09-01T16:06:12;25.10;93.70
32428;DHT22;18882;50.952;4.366;2022-09-01T16:08:39;24.90;93.20
32428;DHT22;18882;50.952;4.366;2022-09-01T16:11:07;25.00;93.30
32428;DHT22;18882;50.952;4.366;2022-09-01T16:13:38;25.30;93.40
32428;DHT22;18882;50.952;4.366;2022-09-01T16:16:10;25.50;93.00
32428;DHT22;18882;50.952;4.366;2022-09-01T16:19:06;25.70;93.10
32428;DHT22;18882;50.952;4.366;2022-09-01T16:22:19;25.80;93.30
32428;DHT22;18882;50.952;4.366;2022-09-01T16:24:25;25.90;92.60
32428;DHT22;18882;50.952;4.366;2022-09-01T16:26:51;25.80;92.70
32428;DHT22;18882;50.952;4.366;2022-09-01T16:29:31;25.70;92.80
32428;DHT22;18882;50.952;4.366;2022-09-01T16:31:59;25.70;92.60
32428;DHT22;18882;50.952;4.366;2022-09-01T16:34:24;25.60;92.50
32428;DHT22;18882;50.952;4.366;2022-09-01T16:36:53;25.70;92.40
32428;DHT22;18882;50.952;4.366;2022-09-01T16:39:44;25.50;92.40
32428;DHT22;18882;50.952;4.366;2022-09-01T16:45:09;25.00;93.00
32428;DHT22;18882;50.952;4.366;2022-09-01T16:48:08;24.80;93.50
32428;DHT22;18882;50.952;4.366;2022-09-01T16:50:44;24.80;93.40
32428;DHT22;18882;50.952;4.366;2022-09-01T17:07:44;24.50;93.80
32428;DHT22;18882;50.952;4.366;2022-09-01T17:10:42;24.40;94.10
32428;DHT22;18882;50.952;4.366;2022-09-01T17:13:41;24.40;94.20
32428;DHT22;18882;50.952;4.366;2022-09-01T17:16:09;24.40;94.10